Time;durP1;ratioP1;P1;durP2;ratioP2;P2;SDS_P1;SDS_P2;PMS_P1;PMS_P2;Temp;Humidity;BMP_temperature;BMP_pressure;BME280_temperature;BME280_humidity;BME280_pressure;Samples;Min_cycle;Max_cycle;Signal;HPM_P1;HPM_P2
2024/01/13 00:00:34;;;;;;;12.60;5.55;;;;;;;;;;5033639;28;20075;-80
2024/01/13 00:03:00;;;;;;;14.95;7.30;;;;;;;;;;5040076;28;20064;-80
2024/01/13 00:05:27;;;;;;;18.10;6.85;;;;;;;;;;5036762;28;20048;-80
2024/01/13 00:07:53;;;;;;;14.65;7.30;;;;;;;;;;5035007;28;20046;-81
2024/01/13 00:10:19;;;;;;;16.33;8.30;;;;;;;;;;5039903;28;20115;-80
2024/01/13 00:12:45;;;;;;;13.00;7.22;;;;;;;;;;5039826;28;20499;-80
2024/01/13 00:15:11;;;;;;;15.80;7.43;;;;;;;;;;5026174;28;20480;-80
2024/01/13 00:17:37;;;;;;;14.93;6.55;;;;;;;;;;5021197;28;20054;-81
2024/01/13 00:20:04;;;;;;;13.02;6.35;;;;;;;;;;5027549;28;20084;-80
2024/01/13 00:22:30;;;;;;;12.45;6.75;;;;;;;;;;5041209;28;20045;-80
2024/01/13 00:24:56;;;;;;;12.52;6.15;;;;;;;;;;5041434;28;20037;-81
2024/01/13 00:27:22;;;;;;;13.35;6.40;;;;;;;;;;5041334;28;20056;-80
2024/01/13 00:29:48;;;;;;;13.95;6.75;;;;;;;;;;5040684;28;20045;-80
2024/01/13 00:32:14;;;;;;;10.52;5.80;;;;;;;;;;5041817;28;20410;-80
2024/01/13 00:34:40;;;;;;;11.10;5.53;;;;;;;;;;5060771;28;20049;-80
2024/01/13 00:37:06;;;;;;;12.95;5.93;;;;;;;;;;5060795;28;20047;-81
2024/01/13 00:39:32;;;;;;;12.63;5.38;;;;;;;;;;5026213;28;20041;-80
2024/01/13 00:41:58;;;;;;;12.93;5.90;;;;;;;;;;5058052;28;20049;-80
2024/01/13 00:44:24;;;;;;;11.07;5.47;;;;;;;;;;5010266;28;20052;-80
2024/01/13 00:46:50;;;;;;;10.23;5.43;;;;;;;;;;5052868;28;20044;-80
2024/01/13 00:49:16;;;;;;;13.13;5.95;;;;;;;;;;5050313;28;20053;-80
2024/01/13 00:51:42;;;;;;;12.32;5.55;;;;;;;;;;5050834;28;20049;-80
2024/01/13 00:54:10;;;;;;;13.50;5.35;;;;;;;;;;5043639;28;20051;-80
2024/01/13 00:56:36;;;;;;;13.73;5.53;;;;;;;;;;5042425;28;20061;-81
2024/01/13 00:59:02;;;;;;;15.32;5.55;;;;;;;;;;5043321;28;20102;-80
2024/01/13 01:01:28;;;;;;;9.80;5.40;;;;;;;;;;5040353;28;20506;-81
2024/01/13 01:03:54;;;;;;;12.07;5.75;;;;;;;;;;5023757;28;20046;-80
2024/01/13 01:06:20;;;;;;;15.60;5.10;;;;;;;;;;5035565;28;20049;-80
2024/01/13 01:08:46;;;;;;;10.48;4.72;;;;;;;;;;5056088;28;20116;-80
2024/01/13 01:11:13;;;;;;;9.68;4.72;;;;;;;;;;5010442;28;20054;-80
2024/01/13 01:13:39;;;;;;;11.93;4.95;;;;;;;;;;5021832;28;20458;-80
2024/01/13 01:16:05;;;;;;;13.25;5.10;;;;;;;;;;5026392;28;20045;-80
2024/01/13 01:18:31;;;;;;;9.50;4.43;;;;;;;;;;5048447;28;20128;-81
2024/01/13 01:20:57;;;;;;;9.07;4.68;;;;;;;;;;5048158;28;20041;-81
2024/01/13 01:23:24;;;;;;;9.07;4.00;;;;;;;;;;5039696;28;20045;-80
2024/01/13 01:25:50;;;;;;;11.32;4.53;;;;;;;;;;5051202;28;20044;-80
2024/01/13 01:28:16;;;;;;;10.57;4.15;;;;;;;;;;5028475;28;20052;-81
2024/01/13 01:30:42;;;;;;;9.10;4.18;;;;;;;;;;5040647;28;20041;-80
2024/01/13 01:33:11;;;;;;;10.48;4.68;;;;;;;;;;5022896;28;20053;-80
2024/01/13 01:35:37;;;;;;;9.60;4.57;;;;;;;;;;5048149;28;20041;-82
2024/01/13 01:38:03;;;;;;;9.93;3.95;;;;;;;;;;5060302;28;20102;-80
2024/01/13 01:40:31;;;;;;;9.13;3.83;;;;;;;;;;5042790;28;20064;-80
2024/01/13 01:42:57;;;;;;;9.68;4.15;;;;;;;;;;5058400;28;20068;-80
2024/01/13 01:45:23;;;;;;;9.40;3.88;;;;;;;;;;5048895;28;20048;-81
2024/01/13 01:47:52;;;;;;;10.27;3.60;;;;;;;;;;5036961;28;20102;-80
2024/01/13 01:50:18;;;;;;;9.25;4.20;;;;;;;;;;5029206;28;20091;-80
2024/01/13 01:52:44;;;;;;;9.88;4.07;;;;;;;;;;5058289;28;20052;-80
2024/01/13 01:55:10;;;;;;;9.35;3.58;;;;;;;;;;5056747;28;20041;-80
2024/01/13 01:57:41;;;;;;;9.77;3.70;;;;;;;;;;5043773;28;20056;-80
2024/01/13 02:00:08;;;;;;;;;;;;;;;;;;5027397;28;20042;-81
2024/01/13 02:02:34;;;;;;;8.55;3.80;;;;;;;;;;5039311;28;19921;-80
2024/01/13 02:05:02;;;;;;;9.27;3.55;;;;;;;;;;5034271;28;20057;-80
2024/01/13 02:07:29;;;;;;;9.27;3.50;;;;;;;;;;5033529;28;20120;-80
2024/01/13 02:09:55;;;;;;;7.32;3.08;;;;;;;;;;5039638;28;20049;-80
2024/01/13 02:12:21;;;;;;;10.35;4.00;;;;;;;;;;5042873;28;20044;-80
2024/01/13 02:14:47;;;;;;;11.40;3.80;;;;;;;;;;5039430;28;20045;-80
2024/01/13 02:17:13;;;;;;;8.40;3.45;;;;;;;;;;5052404;28;20060;-80
2024/01/13 02:19:39;;;;;;;9.55;3.28;;;;;;;;;;5056045;28;20049;-80
2024/01/13 02:22:06;;;;;;;9.13;4.03;;;;;;;;;;5051752;28;20068;-80
2024/01/13 02:24:32;;;;;;;9.15;4.05;;;;;;;;;;5022454;28;20049;-80
2024/01/13 02:26:58;;;;;;;8.05;3.72;;;;;;;;;;5040104;28;20057;-81
2024/01/13 02:29:24;;;;;;;9.88;3.33;;;;;;;;;;5039478;28;20053;-79
2024/01/13 02:31:50;;;;;;;10.65;3.60;;;;;;;;;;5044698;28;20053;-80
2024/01/13 02:34:16;;;;;;;9.25;3.53;;;;;;;;;;5051124;28;20052;-80
2024/01/13 02:36:42;;;;;;;8.70;3.53;;;;;;;;;;5036277;28;20045;-80
2024/01/13 02:39:08;;;;;;;9.10;3.30;;;;;;;;;;5064003;28;20048;-80
2024/01/13 02:41:34;;;;;;;9.38;3.63;;;;;;;;;;5031159;28;20115;-79
2024/01/13 02:44:00;;;;;;;11.25;3.47;;;;;;;;;;5061473;28;20143;-79
2024/01/13 02:46:26;;;;;;;8.38;3.50;;;;;;;;;;5060269;28;20053;-80
2024/01/13 02:48:56;;;;;;;7.95;3.38;;;;;;;;;;5011621;28;20100;-80
2024/01/13 02:51:23;;;;;;;8.55;3.60;;;;;;;;;;5050557;28;20060;-79
2024/01/13 02:53:49;;;;;;;9.20;3.78;;;;;;;;;;5026662;28;20067;-79
2024/01/13 02:56:15;;;;;;;7.82;3.50;;;;;;;;;;5043199;28;20049;-79
2024/01/13 02:58:41;;;;;;;8.27;3.50;;;;;;;;;;5028708;28;20510;-79
2024/01/13 03:01:07;;;;;;;8.88;3.78;;;;;;;;;;5046142;28;20044;-80
2024/01/13 03:03:36;;;;;;;10.05;3.13;;;;;;;;;;5058128;28;20057;-80
2024/01/13 03:06:03;;;;;;;7.70;3.92;;;;;;;;;;5041852;28;20038;-80
2024/01/13 03:08:30;;;;;;;8.35;3.30;;;;;;;;;;5023167;28;20091;-80
2024/01/13 03:10:56;;;;;;;9.20;3.67;;;;;;;;;;5046266;28;20053;-79
2024/01/13 03:13:22;;;;;;;9.27;3.70;;;;;;;;;;5062380;28;20559;-79
2024/01/13 03:15:48;;;;;;;11.88;3.90;;;;;;;;;;5050067;28;20091;-80
2024/01/13 03:18:14;;;;;;;14.52;4.28;;;;;;;;;;5044468;28;20045;-80
2024/01/13 03:20:40;;;;;;;10.90;4.07;;;;;;;;;;5059946;28;20048;-80
2024/01/13 03:23:06;;;;;;;11.15;3.72;;;;;;;;;;5044924;28;20045;-80
2024/01/13 03:25:32;;;;;;;9.90;3.90;;;;;;;;;;5036265;28;20128;-80
2024/01/13 03:27:58;;;;;;;12.57;4.13;;;;;;;;;;5046522;28;20036;-80
2024/01/13 03:30:24;;;;;;;14.68;4.40;;;;;;;;;;5046278;28;20050;-80
2024/01/13 03:32:50;;;;;;;10.85;3.90;;;;;;;;;;5045856;28;20041;-80
2024/01/13 03:35:16;;;;;;;8.48;4.50;;;;;;;;;;5051080;28;20056;-80
2024/01/13 03:37:42;;;;;;;9.80;4.03;;;;;;;;;;5054220;28;20052;-79
2024/01/13 03:40:09;;;;;;;10.65;4.60;;;;;;;;;;5040434;28;20125;-79
2024/01/13 03:42:35;;;;;;;9.45;3.63;;;;;;;;;;5047552;28;20042;-80
2024/01/13 03:45:01;;;;;;;10.27;4.18;;;;;;;;;;5047892;28;20464;-80
2024/01/13 03:47:27;;;;;;;13.43;4.45;;;;;;;;;;5050076;28;20083;-79
2024/01/13 03:49:53;;;;;;;14.45;5.25;;;;;;;;;;5062318;28;20406;-80
2024/01/13 03:52:19;;;;;;;11.30;5.00;;;;;;;;;;5054019;28;20056;-80
2024/01/13 03:54:45;;;;;;;12.27;4.72;;;;;;;;;;5041388;28;20045;-80
2024/01/13 03:57:11;;;;;;;9.85;4.68;;;;;;;;;;5046921;28;20042;-80
2024/01/13 03:59:37;;;;;;;12.85;5.18;;;;;;;;;;5062231;28;20049;-79
2024/01/13 04:02:03;;;;;;;9.50;5.00;;;;;;;;;;5060165;28;20096;-80
2024/01/13 04:04:29;;;;;;;14.07;5.70;;;;;;;;;;5042503;28;20046;-79
2024/01/13 04:06:55;;;;;;;12.05;5.13;;;;;;;;;;5060229;28;20099;-80
2024/01/13 04:09:22;;;;;;;10.18;5.10;;;;;;;;;;5060003;28;20073;-80
2024/01/13 04:11:48;;;;;;;14.60;5.35;;;;;;;;;;5061079;28;20044;-81
2024/01/13 04:14:14;;;;;;;13.05;5.75;;;;;;;;;;5023225;28;20125;-80
2024/01/13 04:16:40;;;;;;;13.50;5.75;;;;;;;;;;5049283;28;20106;-80
2024/01/13 04:19:06;;;;;;;14.27;5.88;;;;;;;;;;5048771;28;20053;-80
2024/01/13 04:21:32;;;;;;;13.23;5.97;;;;;;;;;;5042826;28;20071;-81
2024/01/13 04:23:58;;;;;;;14.90;5.57;;;;;;;;;;5029872;28;20496;-80
2024/01/13 04:26:24;;;;;;;10.25;5.32;;;;;;;;;;5035275;28;20052;-80
2024/01/13 04:28:50;;;;;;;11.73;5.40;;;;;;;;;;5050835;28;20486;-80
2024/01/13 04:31:17;;;;;;;18.55;6.50;;;;;;;;;;5061866;28;20120;-80
2024/01/13 04:33:43;;;;;;;11.93;5.68;;;;;;;;;;5046960;28;20060;-80
2024/01/13 04:36:09;;;;;;;11.43;5.93;;;;;;;;;;5023310;28;20045;-81
2024/01/13 04:38:35;;;;;;;10.63;5.45;;;;;;;;;;5038546;28;20041;-81
2024/01/13 04:41:01;;;;;;;11.73;5.63;;;;;;;;;;5022091;28;20084;-80
2024/01/13 04:43:28;;;;;;;14.48;5.72;;;;;;;;;;5042275;28;20414;-80
2024/01/13 04:45:54;;;;;;;13.63;5.68;;;;;;;;;;5046701;28;20045;-80
2024/01/13 04:48:20;;;;;;;12.65;5.55;;;;;;;;;;5049074;28;20113;-80
2024/01/13 04:50:46;;;;;;;10.93;5.22;;;;;;;;;;5042397;28;20099;-80
2024/01/13 04:53:12;;;;;;;13.32;5.47;;;;;;;;;;5008886;28;20045;-80
2024/01/13 04:55:38;;;;;;;11.10;4.80;;;;;;;;;;5054243;28;20056;-80
2024/01/13 04:58:04;;;;;;;10.85;4.75;;;;;;;;;;5049030;28;20053;-80
2024/01/13 05:00:32;;;;;;;7.93;4.22;;;;;;;;;;5049345;28;20556;-80
2024/01/13 05:02:58;;;;;;;13.35;5.00;;;;;;;;;;5024702;28;20064;-80
2024/01/13 05:05:24;;;;;;;10.82;4.85;;;;;;;;;;5057426;28;20052;-80
2024/01/13 05:07:50;;;;;;;11.30;4.40;;;;;;;;;;5053489;28;20057;-81
2024/01/13 05:10:16;;;;;;;13.35;4.88;;;;;;;;;;5039349;28;20046;-80
2024/01/13 05:12:42;;;;;;;9.95;4.47;;;;;;;;;;5047197;28;20053;-80
2024/01/13 05:15:09;;;;;;;8.18;4.25;;;;;;;;;;5041817;28;20062;-81
2024/01/13 05:17:35;;;;;;;14.68;5.07;;;;;;;;;;5039550;28;20100;-80
2024/01/13 05:20:02;;;;;;;12.75;5.10;;;;;;;;;;5039090;28;20083;-80
2024/01/13 05:22:28;;;;;;;12.57;4.38;;;;;;;;;;5049864;28;20549;-81
2024/01/13 05:24:54;;;;;;;11.43;4.50;;;;;;;;;;5060931;28;20496;-81
2024/01/13 05:27:20;;;;;;;8.68;4.50;;;;;;;;;;5060573;28;20051;-81
2024/01/13 05:29:46;;;;;;;13.77;5.28;;;;;;;;;;5060505;28;20465;-80
2024/01/13 05:32:12;;;;;;;13.38;5.28;;;;;;;;;;5058715;28;20046;-80
2024/01/13 05:34:39;;;;;;;9.68;4.50;;;;;;;;;;5042942;28;20041;-80
2024/01/13 05:37:05;;;;;;;14.18;5.07;;;;;;;;;;5040941;28;20072;-80
2024/01/13 05:39:32;;;;;;;12.18;4.90;;;;;;;;;;5039453;28;20547;-80
2024/01/13 05:41:58;;;;;;;10.70;5.18;;;;;;;;;;5041397;28;20128;-80
2024/01/13 05:44:24;;;;;;;11.10;5.35;;;;;;;;;;5050754;28;20053;-80
2024/01/13 05:46:51;;;;;;;12.07;5.22;;;;;;;;;;5024024;28;20045;-80
2024/01/13 05:49:17;;;;;;;13.27;5.28;;;;;;;;;;5054589;28;20072;-80
2024/01/13 05:51:43;;;;;;;20.13;8.45;;;;;;;;;;5043948;28;20160;-80
2024/01/13 05:54:10;;;;;;;18.17;8.77;;;;;;;;;;5047207;28;20050;-81
2024/01/13 05:56:36;;;;;;;18.15;8.23;;;;;;;;;;5023222;28;20046;-80
2024/01/13 05:59:02;;;;;;;10.77;5.20;;;;;;;;;;5047845;28;20037;-81
2024/01/13 06:01:28;;;;;;;10.55;4.57;;;;;;;;;;5051732;28;20075;-80
2024/01/13 06:03:54;;;;;;;10.98;4.97;;;;;;;;;;5049127;28;20065;-80
2024/01/13 06:06:20;;;;;;;11.18;4.55;;;;;;;;;;5049601;28;20045;-80
2024/01/13 06:08:47;;;;;;;10.73;4.18;;;;;;;;;;5048047;28;20053;-80
2024/01/13 06:11:13;;;;;;;11.68;5.20;;;;;;;;;;5050141;28;20091;-80
2024/01/13 06:13:39;;;;;;;9.43;4.63;;;;;;;;;;5046810;28;20076;-80
2024/01/13 06:16:05;;;;;;;8.52;4.35;;;;;;;;;;5031935;28;20045;-80
2024/01/13 06:18:31;;;;;;;11.18;4.07;;;;;;;;;;5045232;28;20045;-80
2024/01/13 06:20:57;;;;;;;7.78;3.45;;;;;;;;;;5044389;28;20052;-80
2024/01/13 06:23:24;;;;;;;8.52;3.50;;;;;;;;;;5046540;28;20045;-80
2024/01/13 06:25:50;;;;;;;11.35;4.10;;;;;;;;;;5034295;28;20050;-80
2024/01/13 06:28:17;;;;;;;8.45;3.63;;;;;;;;;;5025266;28;20050;-80
2024/01/13 06:30:43;;;;;;;8.38;3.70;;;;;;;;;;5058405;28;20041;-80
2024/01/13 06:33:09;;;;;;;9.55;3.85;;;;;;;;;;5016374;28;20438;-80
2024/01/13 06:35:35;;;;;;;6.82;3.75;;;;;;;;;;5052727;28;20041;-80
2024/01/13 06:38:01;;;;;;;7.47;3.83;;;;;;;;;;5043361;28;20048;-80
2024/01/13 06:40:27;;;;;;;8.00;3.50;;;;;;;;;;5051086;28;20041;-81
2024/01/13 06:42:53;;;;;;;14.23;4.70;;;;;;;;;;5063514;28;20120;-81
2024/01/13 06:45:19;;;;;;;9.35;3.70;;;;;;;;;;5047076;28;20392;-80
2024/01/13 06:47:45;;;;;;;7.88;3.45;;;;;;;;;;5039450;28;20049;-80
2024/01/13 06:50:11;;;;;;;7.25;3.72;;;;;;;;;;5040406;28;20095;-80
2024/01/13 06:52:38;;;;;;;8.63;3.30;;;;;;;;;;5047144;28;20045;-80
2024/01/13 06:55:04;;;;;;;7.90;3.33;;;;;;;;;;5038283;28;20048;-80
2024/01/13 06:57:31;;;;;;;6.70;3.30;;;;;;;;;;5042858;28;21773;-80
2024/01/13 06:59:57;;;;;;;6.65;3.33;;;;;;;;;;5032000;28;20041;-80
2024/01/13 07:02:23;;;;;;;6.88;3.00;;;;;;;;;;5044058;28;20041;-80
2024/01/13 07:04:50;;;;;;;7.97;3.13;;;;;;;;;;5040023;28;20053;-81
2024/01/13 07:07:16;;;;;;;6.43;3.05;;;;;;;;;;5037548;28;20123;-80
2024/01/13 07:09:42;;;;;;;7.20;2.97;;;;;;;;;;5039832;28;20045;-80
2024/01/13 07:12:08;;;;;;;8.85;3.15;;;;;;;;;;5045842;28;20033;-81
2024/01/13 07:14:34;;;;;;;10.20;3.30;;;;;;;;;;5042378;28;20087;-80
2024/01/13 07:17:00;;;;;;;7.40;3.83;;;;;;;;;;5048826;28;20171;-80
2024/01/13 07:19:26;;;;;;;9.60;3.67;;;;;;;;;;5033913;28;20041;-80
2024/01/13 07:21:53;;;;;;;8.25;3.70;;;;;;;;;;5043318;28;20415;-80
2024/01/13 07:24:20;;;;;;;13.40;5.63;;;;;;;;;;5027845;28;20053;-80
2024/01/13 07:26:46;;;;;;;12.60;5.32;;;;;;;;;;5052580;28;20036;-80
2024/01/13 07:29:12;;;;;;;9.85;4.00;;;;;;;;;;5041516;28;20049;-80
2024/01/13 07:31:38;;;;;;;10.02;3.78;;;;;;;;;;5042407;28;20481;-80
2024/01/13 07:34:04;;;;;;;8.38;3.55;;;;;;;;;;5053639;28;20041;-80
2024/01/13 07:36:30;;;;;;;10.73;4.00;;;;;;;;;;5041664;28;20069;-80
2024/01/13 07:38:56;;;;;;;10.93;4.00;;;;;;;;;;5044996;28;20064;-80
2024/01/13 07:41:22;;;;;;;8.40;4.28;;;;;;;;;;5040669;28;20071;-81
2024/01/13 07:43:49;;;;;;;9.43;4.35;;;;;;;;;;5042232;28;20042;-80
2024/01/13 07:46:15;;;;;;;11.65;4.88;;;;;;;;;;5039853;28;20099;-80
2024/01/13 07:48:41;;;;;;;12.75;5.38;;;;;;;;;;5039242;28;20041;-80
2024/01/13 07:51:07;;;;;;;11.63;4.50;;;;;;;;;;5054309;28;20117;-80
2024/01/13 07:53:33;;;;;;;10.57;3.83;;;;;;;;;;5042261;28;20141;-80
2024/01/13 07:55:59;;;;;;;9.93;3.67;;;;;;;;;;5042274;28;20048;-80
2024/01/13 07:58:25;;;;;;;8.73;3.67;;;;;;;;;;5042986;28;20049;-80
2024/01/13 08:00:52;;;;;;;9.02;3.83;;;;;;;;;;5043029;28;20176;-79
2024/01/13 08:03:18;;;;;;;8.95;3.80;;;;;;;;;;5045656;28;20548;-79
2024/01/13 08:05:44;;;;;;;11.57;4.47;;;;;;;;;;5024387;28;20045;-79
2024/01/13 08:08:11;;;;;;;13.18;5.00;;;;;;;;;;5042321;28;20042;-80
2024/01/13 08:10:38;;;;;;;9.73;3.67;;;;;;;;;;5021072;28;20054;-80
2024/01/13 08:13:04;;;;;;;9.23;3.97;;;;;;;;;;5020980;28;20038;-78
2024/01/13 08:15:30;;;;;;;10.57;3.92;;;;;;;;;;5033883;28;20045;-79
2024/01/13 08:17:56;;;;;;;7.75;3.70;;;;;;;;;;5043052;28;20128;-80
2024/01/13 08:20:23;;;;;;;8.50;3.50;;;;;;;;;;5041700;28;20049;-79
2024/01/13 08:22:49;;;;;;;8.00;3.22;;;;;;;;;;5058017;28;20044;-80
2024/01/13 08:25:15;;;;;;;9.18;3.40;;;;;;;;;;5043416;28;20061;-79
2024/01/13 08:27:41;;;;;;;8.10;3.00;;;;;;;;;;5046915;28;20056;-80
2024/01/13 08:30:08;;;;;;;7.88;3.47;;;;;;;;;;5041378;28;20215;-80
2024/01/13 08:32:34;;;;;;;7.53;3.45;;;;;;;;;;5026734;28;20482;-80
2024/01/13 08:35:00;;;;;;;8.30;3.10;;;;;;;;;;5041933;28;20164;-80
2024/01/13 08:37:26;;;;;;;7.75;3.10;;;;;;;;;;5041285;28;20045;-79
2024/01/13 08:39:52;;;;;;;9.35;3.58;;;;;;;;;;5041355;28;20080;-80
2024/01/13 08:42:18;;;;;;;6.93;3.35;;;;;;;;;;5041990;28;20486;-80
2024/01/13 08:44:45;;;;;;;8.50;3.67;;;;;;;;;;5036496;28;20049;-79
2024/01/13 08:47:11;;;;;;;9.32;4.07;;;;;;;;;;5041423;28;20120;-80
2024/01/13 08:49:37;;;;;;;8.55;4.25;;;;;;;;;;5040725;28;20049;-80
2024/01/13 08:52:03;;;;;;;9.30;4.30;;;;;;;;;;5024040;28;20491;-80
2024/01/13 08:54:29;;;;;;;10.70;5.07;;;;;;;;;;5041782;28;20040;-79
2024/01/13 08:56:55;;;;;;;11.25;4.43;;;;;;;;;;5041261;28;20060;-79
2024/01/13 08:59:21;;;;;;;16.10;6.05;;;;;;;;;;5040565;28;20056;-80
2024/01/13 09:01:47;;;;;;;9.48;4.60;;;;;;;;;;5006900;28;20049;-79
2024/01/13 09:04:13;;;;;;;11.20;5.30;;;;;;;;;;5040705;28;20081;-79
2024/01/13 09:06:43;;;;;;;13.77;6.60;;;;;;;;;;5041340;28;20045;-80
2024/01/13 09:09:10;;;;;;;14.13;7.25;;;;;;;;;;5023817;28;20100;-80
2024/01/13 09:11:36;;;;;;;14.07;7.90;;;;;;;;;;5040367;28;20052;-79
2024/01/13 09:14:02;;;;;;;18.15;9.52;;;;;;;;;;5044308;28;20116;-79
2024/01/13 09:16:28;;;;;;;16.45;9.25;;;;;;;;;;5043945;28;20053;-79
2024/01/13 09:18:55;;;;;;;21.63;10.77;;;;;;;;;;5042032;28;20085;-80
2024/01/13 09:21:21;;;;;;;26.40;11.80;;;;;;;;;;5040992;28;20050;-80
2024/01/13 09:23:47;;;;;;;23.92;11.88;;;;;;;;;;5044068;28;20072;-79
2024/01/13 09:26:13;;;;;;;26.63;13.65;;;;;;;;;;5040912;28;20381;-79
2024/01/13 09:28:39;;;;;;;26.42;14.52;;;;;;;;;;5007216;28;20065;-79
2024/01/13 09:31:06;;;;;;;26.27;14.05;;;;;;;;;;5041306;28;20045;-79
2024/01/13 09:33:32;;;;;;;30.60;17.83;;;;;;;;;;5040491;28;20049;-80
2024/01/13 09:35:58;;;;;;;37.58;19.77;;;;;;;;;;5040402;28;20041;-80
2024/01/13 09:38:24;;;;;;;33.60;19.50;;;;;;;;;;5040777;28;20107;-80
2024/01/13 09:40:51;;;;;;;42.65;22.50;;;;;;;;;;5039846;28;20037;-80
2024/01/13 09:43:17;;;;;;;49.50;25.23;;;;;;;;;;5040561;28;20101;-80
2024/01/13 09:45:44;;;;;;;42.80;22.17;;;;;;;;;;5023140;28;20049;-79
2024/01/13 09:48:12;;;;;;;45.28;24.33;;;;;;;;;;5039323;28;20049;-80
2024/01/13 09:50:40;;;;;;;45.83;25.33;;;;;;;;;;5040712;28;20072;-79
2024/01/13 09:53:08;;;;;;;52.92;27.33;;;;;;;;;;5040921;28;20103;-80
2024/01/13 09:55:36;;;;;;;52.42;27.15;;;;;;;;;;5040932;28;20061;-80
2024/01/13 09:58:02;;;;;;;64.00;30.88;;;;;;;;;;5040154;28;20072;-80
2024/01/13 10:00:30;;;;;;;55.42;30.05;;;;;;;;;;5040299;28;20041;-80
2024/01/13 10:02:57;;;;;;;62.42;33.05;;;;;;;;;;5039657;28;20115;-79
2024/01/13 10:05:23;;;;;;;60.05;31.80;;;;;;;;;;5044160;28;20363;-80
2024/01/13 10:07:52;;;;;;;53.75;30.60;;;;;;;;;;5050497;28;20097;-79
2024/01/13 10:10:19;;;;;;;57.85;30.00;;;;;;;;;;5039601;28;20053;-81
2024/01/13 10:12:45;;;;;;;59.55;31.15;;;;;;;;;;5039800;28;20042;-79
2024/01/13 10:15:15;;;;;;;62.83;31.45;;;;;;;;;;5039041;28;20100;-79
2024/01/13 10:17:41;;;;;;;68.32;34.13;;;;;;;;;;5039077;28;20064;-80
2024/01/13 10:20:10;;;;;;;67.90;33.70;;;;;;;;;;5041879;28;20049;-80
2024/01/13 10:22:39;;;;;;;58.80;30.63;;;;;;;;;;5038600;28;20060;-80
2024/01/13 10:25:07;;;;;;;60.05;33.55;;;;;;;;;;5036029;28;20053;-80
2024/01/13 10:27:33;;;;;;;62.00;33.45;;;;;;;;;;5017008;28;20057;-80
2024/01/13 10:29:59;;;;;;;64.30;34.95;;;;;;;;;;5040309;28;20549;-80
2024/01/13 10:32:27;;;;;;;60.90;35.28;;;;;;;;;;5046890;28;20072;-80
2024/01/13 10:34:54;;;;;;;65.55;35.95;;;;;;;;;;5044652;28;20414;-80
2024/01/13 10:37:20;;;;;;;67.35;36.35;;;;;;;;;;5039207;28;20046;-80
2024/01/13 10:39:46;;;;;;;60.40;35.13;;;;;;;;;;5038784;28;20057;-80
2024/01/13 10:42:16;;;;;;;60.50;33.45;;;;;;;;;;5038026;28;20085;-79
2024/01/13 10:44:45;;;;;;;58.67;34.88;;;;;;;;;;5020354;28;20053;-80
2024/01/13 10:47:15;;;;;;;61.53;34.15;;;;;;;;;;5040021;28;20037;-80
2024/01/13 10:49:42;;;;;;;62.10;35.47;;;;;;;;;;5040033;28;20042;-79
2024/01/13 10:52:13;;;;;;;63.25;34.63;;;;;;;;;;5029280;28;20033;-80
2024/01/13 10:54:40;;;;;;;66.10;36.80;;;;;;;;;;5043167;28;20037;-80
2024/01/13 10:57:06;;;;;;;60.05;35.25;;;;;;;;;;5043038;28;20357;-80
2024/01/13 10:59:34;;;;;;;61.10;35.45;;;;;;;;;;5043128;28;20077;-80
2024/01/13 11:02:00;;;;;;;64.40;36.22;;;;;;;;;;5023217;28;20053;-80
2024/01/13 11:04:27;;;;;;;57.25;35.17;;;;;;;;;;5043372;28;20097;-81
2024/01/13 11:06:54;;;;;;;60.88;36.35;;;;;;;;;;5043666;28;20045;-80
2024/01/13 11:09:21;;;;;;;57.38;36.20;;;;;;;;;;5042681;28;20037;-80
2024/01/13 11:11:53;;;;;;;63.75;36.05;;;;;;;;;;5043933;28;20049;-80
2024/01/13 11:14:26;;;;;;;65.88;36.15;;;;;;;;;;5059730;28;20049;-80
2024/01/13 11:16:53;;;;;;;59.28;35.38;;;;;;;;;;5043093;28;20064;-80
2024/01/13 11:19:19;;;;;;;60.50;35.40;;;;;;;;;;5029755;28;20077;-79
2024/01/13 11:21:48;;;;;;;58.40;36.10;;;;;;;;;;5039885;28;20059;-79
2024/01/13 11:24:15;;;;;;;60.60;36.78;;;;;;;;;;5042214;28;20439;-80
2024/01/13 11:26:48;;;;;;;55.58;32.42;;;;;;;;;;5042403;28;20076;-80
2024/01/13 11:29:22;;;;;;;63.17;36.78;;;;;;;;;;5007254;28;20077;-79
2024/01/13 11:31:54;;;;;;;66.13;36.55;;;;;;;;;;5036413;28;20080;-79
2024/01/13 11:34:20;;;;;;;61.00;35.33;;;;;;;;;;5036143;28;20046;-79
2024/01/13 11:36:50;;;;;;;59.85;35.90;;;;;;;;;;5037541;28;20118;-79
2024/01/13 11:39:17;;;;;;;58.67;35.28;;;;;;;;;;5042436;28;20061;-80
2024/01/13 11:41:50;;;;;;;55.45;35.67;;;;;;;;;;5050699;28;20116;-80
2024/01/13 11:44:22;;;;;;;58.10;37.30;;;;;;;;;;5042008;28;20073;-81
2024/01/13 11:46:59;;;;;;;56.63;34.70;;;;;;;;;;5041984;28;20049;-80
2024/01/13 11:49:34;;;;;;;65.97;39.78;;;;;;;;;;5024656;28;20147;-80
2024/01/13 11:52:01;;;;;;;56.85;33.63;;;;;;;;;;5042609;28;20045;-80
2024/01/13 11:54:28;;;;;;;55.35;35.78;;;;;;;;;;5041158;28;20037;-80
2024/01/13 11:56:54;;;;;;;58.50;37.95;;;;;;;;;;5041910;28;20101;-80
2024/01/13 11:59:20;;;;;;;59.78;38.00;;;;;;;;;;5042350;28;20392;-80
2024/01/13 12:01:47;;;;;;;52.85;34.15;;;;;;;;;;5042159;28;20053;-80
2024/01/13 12:04:14;;;;;;;56.50;32.70;;;;;;;;;;5023404;28;20060;-80
2024/01/13 12:06:42;;;;;;;56.53;32.17;;;;;;;;;;5041459;28;20058;-79
2024/01/13 12:09:08;;;;;;;50.75;31.10;;;;;;;;;;5042613;28;20042;-80
2024/01/13 12:11:34;;;;;;;45.90;30.05;;;;;;;;;;5040409;28;20049;-79
2024/01/13 12:14:04;;;;;;;53.13;33.38;;;;;;;;;;5041770;28;20069;-79
2024/01/13 12:16:30;;;;;;;52.92;34.13;;;;;;;;;;5061411;28;20104;-80
2024/01/13 12:18:56;;;;;;;56.05;31.52;;;;;;;;;;5053566;28;20054;-79
2024/01/13 12:21:23;;;;;;;47.40;30.05;;;;;;;;;;5048500;28;20056;-80
2024/01/13 12:23:49;;;;;;;46.90;28.95;;;;;;;;;;5040463;28;20362;-80
2024/01/13 12:26:15;;;;;;;43.67;28.02;;;;;;;;;;5041450;28;20109;-80
2024/01/13 12:28:41;;;;;;;49.60;30.38;;;;;;;;;;5041519;28;20103;-80
2024/01/13 12:31:08;;;;;;;47.03;27.77;;;;;;;;;;5041625;28;20045;-80
2024/01/13 12:33:34;;;;;;;48.95;28.45;;;;;;;;;;5040890;28;20371;-80
2024/01/13 12:36:01;;;;;;;45.60;26.80;;;;;;;;;;5041554;28;20045;-80
2024/01/13 12:38:33;;;;;;;47.33;28.52;;;;;;;;;;5041226;28;20483;-80
2024/01/13 12:40:59;;;;;;;50.80;29.58;;;;;;;;;;5040739;28;20049;-79
2024/01/13 12:43:25;;;;;;;56.63;30.45;;;;;;;;;;5040352;28;20049;-79
2024/01/13 12:45:52;;;;;;;52.28;30.02;;;;;;;;;;5040764;28;20096;-79
2024/01/13 12:48:20;;;;;;;51.88;28.08;;;;;;;;;;5040539;28;20395;-80
2024/01/13 12:50:46;;;;;;;56.45;30.38;;;;;;;;;;5040498;28;20177;-80
2024/01/13 12:53:12;;;;;;;57.10;29.70;;;;;;;;;;5043235;28;20065;-80
2024/01/13 12:55:38;;;;;;;51.88;27.60;;;;;;;;;;5041080;28;20145;-80
2024/01/13 12:58:05;;;;;;;62.13;31.13;;;;;;;;;;5033246;28;20048;-79
2024/01/13 13:00:31;;;;;;;60.40;31.00;;;;;;;;;;5040648;28;20057;-80
2024/01/13 13:02:57;;;;;;;57.92;28.23;;;;;;;;;;5023485;28;20037;-80
2024/01/13 13:05:24;;;;;;;51.80;26.55;;;;;;;;;;5027328;28;20099;-80
2024/01/13 13:07:50;;;;;;;54.30;28.73;;;;;;;;;;5039054;28;20117;-80
2024/01/13 13:10:18;;;;;;;61.53;27.83;;;;;;;;;;5039956;28;20103;-80
2024/01/13 13:12:46;;;;;;;55.08;28.33;;;;;;;;;;5040645;28;20061;-79
2024/01/13 13:15:12;;;;;;;46.92;25.98;;;;;;;;;;5040261;28;20061;-79
2024/01/13 13:17:38;;;;;;;51.50;26.58;;;;;;;;;;5040493;28;20094;-79
2024/01/13 13:20:07;;;;;;;52.58;26.90;;;;;;;;;;5039898;28;20048;-79
2024/01/13 13:22:37;;;;;;;46.33;25.50;;;;;;;;;;5040166;28;20128;-79
2024/01/13 13:25:06;;;;;;;49.10;26.67;;;;;;;;;;5040525;28;20131;-80
2024/01/13 13:27:32;;;;;;;49.35;27.63;;;;;;;;;;5040309;28;20045;-80
2024/01/13 13:29:59;;;;;;;54.47;29.00;;;;;;;;;;5040023;28;20076;-80
2024/01/13 13:32:26;;;;;;;48.38;25.85;;;;;;;;;;5040776;28;20077;-80
2024/01/13 13:34:52;;;;;;;51.13;28.08;;;;;;;;;;5040395;28;20041;-79
2024/01/13 13:37:18;;;;;;;48.92;25.52;;;;;;;;;;5040185;28;20051;-80
2024/01/13 13:39:44;;;;;;;41.03;24.10;;;;;;;;;;5040002;28;20105;-79
2024/01/13 13:42:10;;;;;;;36.55;20.85;;;;;;;;;;5039394;28;20061;-80
2024/01/13 13:44:37;;;;;;;36.40;20.25;;;;;;;;;;5039435;28;20045;-80
2024/01/13 13:47:04;;;;;;;37.75;22.00;;;;;;;;;;5039863;28;20037;-80
2024/01/13 13:49:30;;;;;;;36.15;20.00;;;;;;;;;;5040314;28;20060;-79
2024/01/13 13:51:57;;;;;;;35.65;20.48;;;;;;;;;;5039714;28;20056;-80
2024/01/13 13:54:24;;;;;;;35.67;20.55;;;;;;;;;;5039177;28;20053;-79
2024/01/13 13:56:50;;;;;;;32.38;18.48;;;;;;;;;;5039627;28;20080;-80
2024/01/13 13:59:17;;;;;;;39.38;22.13;;;;;;;;;;5039409;28;20049;-80
2024/01/13 14:01:43;;;;;;;35.05;20.23;;;;;;;;;;5040234;28;20045;-80
2024/01/13 14:04:09;;;;;;;31.20;18.33;;;;;;;;;;5031566;28;20100;-79
2024/01/13 14:06:36;;;;;;;27.08;16.23;;;;;;;;;;5028979;28;20053;-79
2024/01/13 14:09:03;;;;;;;28.27;16.48;;;;;;;;;;5023314;28;20187;-80
2024/01/13 14:11:29;;;;;;;28.98;17.20;;;;;;;;;;5046332;28;20058;-79
2024/01/13 14:13:55;;;;;;;29.63;17.00;;;;;;;;;;5039042;28;20081;-80
2024/01/13 14:16:21;;;;;;;29.85;17.05;;;;;;;;;;5038818;28;20057;-80
2024/01/13 14:18:47;;;;;;;26.55;16.05;;;;;;;;;;5039051;28;20053;-80
2024/01/13 14:21:17;;;;;;;27.77;15.73;;;;;;;;;;5039027;28;20394;-80
2024/01/13 14:23:43;;;;;;;24.83;14.98;;;;;;;;;;5039022;28;20046;-80